Kingshill, Virgin Islands
Current Conditions -  °F | °C
As of 4:00 PM on Wednesday 26 Nov 2014 (Local Time) from TUPJ Reporting Station
Scattered Clouds Scattered Clouds  
Wind Chill: 29°   Ceiling: Unl
Heat Index: 34°   Visibility: 6mi
Dew Point: 24°   Wind: 14mph
Humidity: 74%   Direction: 90°E
Pressure: 29.97"   Gusts: NA
Location:  17.72°N, 64.78°W
Report Text: TUPJ 262000Z 09012KT 9999 SCT019 29/24 Q1015 RMK A2998
Loading
Personal Weather Stations






























Interactive Weather Map New forecast layout! Learn more

10-Day Weather Forecast

Advertisements
Track Severe Weather on mobile